Aviation Digital Data Service (ADDS)

Output produced by TAFs form (2137 UTC 22 October 2014)
found at http://aviationweather.gov/adds/tafs/
 
KLVS 221857Z 2219/2318 20011KT P6SM SKC 
     FM230500 28006KT P6SM SCT120